sensor_id;sensor_type;location;lat;lon;timestamp;P1;durP1;ratioP1;P2;durP2;ratioP2
18822;SDS011;9540;51.550;7.980;2023-06-24T00:01:50;16.70;;;10.32;;
18822;SDS011;9540;51.550;7.980;2023-06-24T00:04:17;17.40;;;9.80;;
18822;SDS011;9540;51.550;7.980;2023-06-24T00:06:47;13.82;;;9.82;;
18822;SDS011;9540;51.550;7.980;2023-06-24T00:09:17;15.45;;;10.52;;
18822;SDS011;9540;51.550;7.980;2023-06-24T00:11:44;14.95;;;10.27;;
18822;SDS011;9540;51.550;7.980;2023-06-24T00:14:13;14.32;;;10.57;;
18822;SDS011;9540;51.550;7.980;2023-06-24T00:16:41;15.32;;;11.27;;
18822;SDS011;9540;51.550;7.980;2023-06-24T00:19:08;17.40;;;12.32;;
18822;SDS011;9540;51.550;7.980;2023-06-24T00:21:38;16.02;;;11.75;;
18822;SDS011;9540;51.550;7.980;2023-06-24T00:24:07;21.35;;;12.32;;
18822;SDS011;9540;51.550;7.980;2023-06-24T00:26:34;15.02;;;11.43;;
18822;SDS011;9540;51.550;7.980;2023-06-24T00:29:01;20.63;;;12.35;;
18822;SDS011;9540;51.550;7.980;2023-06-24T00:31:28;17.45;;;11.98;;
18822;SDS011;9540;51.550;7.980;2023-06-24T00:33:55;17.23;;;12.43;;
18822;SDS011;9540;51.550;7.980;2023-06-24T00:36:22;24.63;;;12.93;;
18822;SDS011;9540;51.550;7.980;2023-06-24T00:38:51;23.35;;;14.85;;
18822;SDS011;9540;51.550;7.980;2023-06-24T00:41:20;22.05;;;12.93;;
18822;SDS011;9540;51.550;7.980;2023-06-24T00:43:48;19.38;;;12.63;;
18822;SDS011;9540;51.550;7.980;2023-06-24T00:46:16;17.90;;;12.68;;
18822;SDS011;9540;51.550;7.980;2023-06-24T00:48:44;22.92;;;13.90;;
18822;SDS011;9540;51.550;7.980;2023-06-24T00:51:12;18.90;;;12.13;;
18822;SDS011;9540;51.550;7.980;2023-06-24T00:53:39;18.55;;;13.25;;
18822;SDS011;9540;51.550;7.980;2023-06-24T00:56:06;21.48;;;13.93;;
18822;SDS011;9540;51.550;7.980;2023-06-24T00:58:34;19.60;;;13.90;;
18822;SDS011;9540;51.550;7.980;2023-06-24T01:01:04;19.42;;;12.70;;
18822;SDS011;9540;51.550;7.980;2023-06-24T01:03:33;20.02;;;12.48;;
18822;SDS011;9540;51.550;7.980;2023-06-24T01:06:03;19.00;;;12.85;;
18822;SDS011;9540;51.550;7.980;2023-06-24T01:08:33;18.35;;;12.32;;
18822;SDS011;9540;51.550;7.980;2023-06-24T01:11:01;18.67;;;12.23;;
18822;SDS011;9540;51.550;7.980;2023-06-24T01:13:28;18.80;;;12.73;;
18822;SDS011;9540;51.550;7.980;2023-06-24T01:15:57;19.80;;;12.52;;
18822;SDS011;9540;51.550;7.980;2023-06-24T01:18:28;24.25;;;12.25;;
18822;SDS011;9540;51.550;7.980;2023-06-24T01:21:00;17.88;;;12.60;;
18822;SDS011;9540;51.550;7.980;2023-06-24T01:26:33;22.30;;;11.82;;
18822;SDS011;9540;51.550;7.980;2023-06-24T01:29:29;15.52;;;11.18;;
18822;SDS011;9540;51.550;7.980;2023-06-24T01:32:12;23.02;;;11.20;;
18822;SDS011;9540;51.550;7.980;2023-06-24T01:34:48;17.55;;;10.70;;
18822;SDS011;9540;51.550;7.980;2023-06-24T01:37:25;16.20;;;10.85;;
18822;SDS011;9540;51.550;7.980;2023-06-24T01:39:56;13.73;;;10.15;;
18822;SDS011;9540;51.550;7.980;2023-06-24T01:42:34;18.85;;;10.35;;
18822;SDS011;9540;51.550;7.980;2023-06-24T01:45:05;15.30;;;10.18;;
18822;SDS011;9540;51.550;7.980;2023-06-24T01:47:36;11.85;;;8.85;;
18822;SDS011;9540;51.550;7.980;2023-06-24T01:50:06;10.95;;;8.82;;
18822;SDS011;9540;51.550;7.980;2023-06-24T01:52:37;14.55;;;9.60;;
18822;SDS011;9540;51.550;7.980;2023-06-24T01:55:09;34.35;;;10.07;;
18822;SDS011;9540;51.550;7.980;2023-06-24T01:57:37;12.63;;;8.52;;
18822;SDS011;9540;51.550;7.980;2023-06-24T02:00:07;17.00;;;9.60;;
18822;SDS011;9540;51.550;7.980;2023-06-24T02:02:37;14.05;;;9.98;;
18822;SDS011;9540;51.550;7.980;2023-06-24T02:05:06;16.00;;;10.13;;
18822;SDS011;9540;51.550;7.980;2023-06-24T02:07:35;15.05;;;9.57;;
18822;SDS011;9540;51.550;7.980;2023-06-24T02:10:04;13.13;;;9.52;;
18822;SDS011;9540;51.550;7.980;2023-06-24T02:12:34;15.88;;;10.88;;
18822;SDS011;9540;51.550;7.980;2023-06-24T02:15:03;19.65;;;10.38;;
18822;SDS011;9540;51.550;7.980;2023-06-24T02:17:33;15.82;;;10.45;;
18822;SDS011;9540;51.550;7.980;2023-06-24T02:20:07;17.77;;;10.48;;
18822;SDS011;9540;51.550;7.980;2023-06-24T02:22:36;15.90;;;10.48;;
18822;SDS011;9540;51.550;7.980;2023-06-24T02:25:06;15.63;;;10.65;;
18822;SDS011;9540;51.550;7.980;2023-06-24T02:27:34;17.15;;;11.07;;
18822;SDS011;9540;51.550;7.980;2023-06-24T02:30:02;17.73;;;10.68;;
18822;SDS011;9540;51.550;7.980;2023-06-24T02:32:30;17.25;;;10.75;;
18822;SDS011;9540;51.550;7.980;2023-06-24T02:34:58;17.55;;;9.80;;
18822;SDS011;9540;51.550;7.980;2023-06-24T02:37:26;15.80;;;10.32;;
18822;SDS011;9540;51.550;7.980;2023-06-24T02:39:53;13.07;;;9.20;;
18822;SDS011;9540;51.550;7.980;2023-06-24T02:42:21;14.38;;;9.85;;
18822;SDS011;9540;51.550;7.980;2023-06-24T02:44:48;14.45;;;10.00;;
18822;SDS011;9540;51.550;7.980;2023-06-24T02:47:16;13.15;;;9.60;;
18822;SDS011;9540;51.550;7.980;2023-06-24T02:49:44;14.07;;;9.30;;
18822;SDS011;9540;51.550;7.980;2023-06-24T02:52:13;16.90;;;10.73;;
18822;SDS011;9540;51.550;7.980;2023-06-24T02:54:42;12.18;;;9.35;;
18822;SDS011;9540;51.550;7.980;2023-06-24T02:57:10;15.48;;;9.25;;
18822;SDS011;9540;51.550;7.980;2023-06-24T02:59:39;12.90;;;9.35;;
18822;SDS011;9540;51.550;7.980;2023-06-24T03:02:06;13.70;;;9.20;;
18822;SDS011;9540;51.550;7.980;2023-06-24T03:04:34;12.02;;;9.10;;
18822;SDS011;9540;51.550;7.980;2023-06-24T03:07:03;15.70;;;9.93;;
18822;SDS011;9540;51.550;7.980;2023-06-24T03:09:33;14.85;;;9.57;;
18822;SDS011;9540;51.550;7.980;2023-06-24T03:12:02;19.00;;;9.82;;
18822;SDS011;9540;51.550;7.980;2023-06-24T03:14:31;15.10;;;9.52;;
18822;SDS011;9540;51.550;7.980;2023-06-24T03:16:58;21.80;;;9.95;;
18822;SDS011;9540;51.550;7.980;2023-06-24T03:19:26;16.88;;;9.90;;
18822;SDS011;9540;51.550;7.980;2023-06-24T03:21:53;14.90;;;10.05;;
18822;SDS011;9540;51.550;7.980;2023-06-24T03:24:20;15.13;;;10.63;;
18822;SDS011;9540;51.550;7.980;2023-06-24T03:26:47;16.35;;;9.15;;
18822;SDS011;9540;51.550;7.980;2023-06-24T03:29:22;15.23;;;8.70;;
18822;SDS011;9540;51.550;7.980;2023-06-24T03:31:49;11.70;;;9.07;;
18822;SDS011;9540;51.550;7.980;2023-06-24T03:34:16;10.63;;;8.43;;
18822;SDS011;9540;51.550;7.980;2023-06-24T03:36:44;12.98;;;9.05;;
18822;SDS011;9540;51.550;7.980;2023-06-24T03:39:11;12.02;;;8.88;;
18822;SDS011;9540;51.550;7.980;2023-06-24T03:41:38;19.25;;;9.45;;
18822;SDS011;9540;51.550;7.980;2023-06-24T03:44:05;16.02;;;10.10;;
18822;SDS011;9540;51.550;7.980;2023-06-24T03:46:36;11.50;;;8.95;;
18822;SDS011;9540;51.550;7.980;2023-06-24T03:49:03;12.65;;;9.30;;
18822;SDS011;9540;51.550;7.980;2023-06-24T03:51:31;11.30;;;8.60;;
18822;SDS011;9540;51.550;7.980;2023-06-24T03:53:59;11.52;;;9.05;;
18822;SDS011;9540;51.550;7.980;2023-06-24T03:56:26;11.40;;;8.00;;
18822;SDS011;9540;51.550;7.980;2023-06-24T03:58:53;11.77;;;8.88;;
18822;SDS011;9540;51.550;7.980;2023-06-24T04:01:20;12.68;;;8.75;;
18822;SDS011;9540;51.550;7.980;2023-06-24T04:03:48;10.43;;;8.55;;
18822;SDS011;9540;51.550;7.980;2023-06-24T04:06:15;12.50;;;8.82;;
18822;SDS011;9540;51.550;7.980;2023-06-24T04:08:42;11.43;;;8.40;;
18822;SDS011;9540;51.550;7.980;2023-06-24T04:11:09;12.25;;;8.93;;
18822;SDS011;9540;51.550;7.980;2023-06-24T04:13:37;12.63;;;8.23;;
18822;SDS011;9540;51.550;7.980;2023-06-24T04:16:04;12.43;;;8.27;;
18822;SDS011;9540;51.550;7.980;2023-06-24T04:18:31;15.23;;;8.57;;
18822;SDS011;9540;51.550;7.980;2023-06-24T04:21:00;11.02;;;8.55;;
18822;SDS011;9540;51.550;7.980;2023-06-24T04:23:27;11.80;;;8.38;;
18822;SDS011;9540;51.550;7.980;2023-06-24T04:25:54;13.50;;;8.80;;
18822;SDS011;9540;51.550;7.980;2023-06-24T04:28:22;11.27;;;8.45;;
18822;SDS011;9540;51.550;7.980;2023-06-24T04:30:49;13.55;;;8.00;;
18822;SDS011;9540;51.550;7.980;2023-06-24T04:33:16;13.40;;;8.75;;
18822;SDS011;9540;51.550;7.980;2023-06-24T04:35:43;15.05;;;8.23;;
18822;SDS011;9540;51.550;7.980;2023-06-24T04:38:11;10.68;;;8.27;;
18822;SDS011;9540;51.550;7.980;2023-06-24T04:40:43;9.75;;;7.97;;
18822;SDS011;9540;51.550;7.980;2023-06-24T04:43:10;11.50;;;8.45;;
18822;SDS011;9540;51.550;7.980;2023-06-24T04:45:37;10.88;;;7.45;;
18822;SDS011;9540;51.550;7.980;2023-06-24T04:48:05;12.55;;;8.13;;
18822;SDS011;9540;51.550;7.980;2023-06-24T04:50:32;11.10;;;7.68;;
18822;SDS011;9540;51.550;7.980;2023-06-24T04:52:59;22.30;;;7.97;;
18822;SDS011;9540;51.550;7.980;2023-06-24T04:55:28;14.15;;;7.45;;
18822;SDS011;9540;51.550;7.980;2023-06-24T04:57:56;13.35;;;7.82;;
18822;SDS011;9540;51.550;7.980;2023-06-24T05:00:23;15.75;;;8.05;;
18822;SDS011;9540;51.550;7.980;2023-06-24T05:02:51;12.40;;;6.95;;
18822;SDS011;9540;51.550;7.980;2023-06-24T05:05:18;11.25;;;8.60;;
18822;SDS011;9540;51.550;7.980;2023-06-24T05:07:46;11.27;;;8.27;;
18822;SDS011;9540;51.550;7.980;2023-06-24T05:10:13;12.75;;;7.50;;
18822;SDS011;9540;51.550;7.980;2023-06-24T05:12:42;11.13;;;7.38;;
18822;SDS011;9540;51.550;7.980;2023-06-24T05:15:09;8.95;;;7.45;;
18822;SDS011;9540;51.550;7.980;2023-06-24T05:17:36;12.45;;;7.95;;
18822;SDS011;9540;51.550;7.980;2023-06-24T05:20:04;9.82;;;7.82;;
18822;SDS011;9540;51.550;7.980;2023-06-24T05:22:32;9.07;;;7.45;;
18822;SDS011;9540;51.550;7.980;2023-06-24T05:25:02;8.85;;;6.85;;
18822;SDS011;9540;51.550;7.980;2023-06-24T05:27:29;10.05;;;7.40;;
18822;SDS011;9540;51.550;7.980;2023-06-24T05:29:57;11.45;;;6.90;;
18822;SDS011;9540;51.550;7.980;2023-06-24T05:32:24;12.63;;;7.88;;
18822;SDS011;9540;51.550;7.980;2023-06-24T05:34:51;7.53;;;6.70;;
18822;SDS011;9540;51.550;7.980;2023-06-24T05:37:22;14.30;;;7.38;;
18822;SDS011;9540;51.550;7.980;2023-06-24T05:39:49;9.85;;;6.72;;
18822;SDS011;9540;51.550;7.980;2023-06-24T05:42:16;12.25;;;6.95;;
18822;SDS011;9540;51.550;7.980;2023-06-24T05:44:43;13.38;;;7.38;;
18822;SDS011;9540;51.550;7.980;2023-06-24T05:47:12;10.93;;;7.25;;
18822;SDS011;9540;51.550;7.980;2023-06-24T05:49:39;11.82;;;7.00;;
18822;SDS011;9540;51.550;7.980;2023-06-24T05:52:06;9.43;;;7.72;;
18822;SDS011;9540;51.550;7.980;2023-06-24T05:54:33;14.43;;;7.03;;
18822;SDS011;9540;51.550;7.980;2023-06-24T05:57:01;13.10;;;7.05;;
18822;SDS011;9540;51.550;7.980;2023-06-24T05:59:31;10.32;;;6.47;;
18822;SDS011;9540;51.550;7.980;2023-06-24T06:01:58;11.77;;;7.47;;
18822;SDS011;9540;51.550;7.980;2023-06-24T06:04:27;9.65;;;7.03;;
18822;SDS011;9540;51.550;7.980;2023-06-24T06:06:55;11.05;;;6.85;;
18822;SDS011;9540;51.550;7.980;2023-06-24T06:09:22;11.52;;;7.07;;
18822;SDS011;9540;51.550;7.980;2023-06-24T06:11:49;14.30;;;8.18;;
18822;SDS011;9540;51.550;7.980;2023-06-24T06:14:17;7.60;;;6.45;;
18822;SDS011;9540;51.550;7.980;2023-06-24T06:16:44;8.18;;;6.68;;
18822;SDS011;9540;51.550;7.980;2023-06-24T06:19:11;8.93;;;6.57;;
18822;SDS011;9540;51.550;7.980;2023-06-24T06:21:39;8.20;;;6.57;;
18822;SDS011;9540;51.550;7.980;2023-06-24T06:24:07;10.95;;;6.47;;
18822;SDS011;9540;51.550;7.980;2023-06-24T06:26:34;6.53;;;5.65;;
18822;SDS011;9540;51.550;7.980;2023-06-24T06:29:01;6.30;;;5.40;;
18822;SDS011;9540;51.550;7.980;2023-06-24T06:31:28;9.95;;;6.72;;
18822;SDS011;9540;51.550;7.980;2023-06-24T06:33:55;8.48;;;6.50;;
18822;SDS011;9540;51.550;7.980;2023-06-24T06:36:22;6.80;;;5.60;;
18822;SDS011;9540;51.550;7.980;2023-06-24T06:38:51;9.25;;;6.45;;
18822;SDS011;9540;51.550;7.980;2023-06-24T06:41:18;7.80;;;6.00;;
18822;SDS011;9540;51.550;7.980;2023-06-24T06:43:49;7.97;;;6.38;;
18822;SDS011;9540;51.550;7.980;2023-06-24T06:46:16;10.55;;;6.47;;
18822;SDS011;9540;51.550;7.980;2023-06-24T06:48:43;8.02;;;5.72;;
18822;SDS011;9540;51.550;7.980;2023-06-24T06:51:10;8.50;;;6.10;;
18822;SDS011;9540;51.550;7.980;2023-06-24T06:53:39;7.57;;;6.15;;
18822;SDS011;9540;51.550;7.980;2023-06-24T06:56:08;9.18;;;6.00;;
18822;SDS011;9540;51.550;7.980;2023-06-24T06:58:35;6.30;;;5.80;;
18822;SDS011;9540;51.550;7.980;2023-06-24T07:01:03;9.73;;;5.95;;
18822;SDS011;9540;51.550;7.980;2023-06-24T07:03:31;7.40;;;5.72;;
18822;SDS011;9540;51.550;7.980;2023-06-24T07:05:58;9.07;;;5.90;;
18822;SDS011;9540;51.550;7.980;2023-06-24T07:08:25;7.65;;;5.50;;
18822;SDS011;9540;51.550;7.980;2023-06-24T07:10:55;6.05;;;5.43;;
18822;SDS011;9540;51.550;7.980;2023-06-24T07:13:24;7.53;;;5.60;;
18822;SDS011;9540;51.550;7.980;2023-06-24T07:15:51;12.75;;;6.07;;
18822;SDS011;9540;51.550;7.980;2023-06-24T07:18:18;15.02;;;5.82;;
18822;SDS011;9540;51.550;7.980;2023-06-24T07:20:45;7.18;;;5.22;;
18822;SDS011;9540;51.550;7.980;2023-06-24T07:23:13;6.43;;;5.75;;
18822;SDS011;9540;51.550;7.980;2023-06-24T07:25:41;9.65;;;5.78;;
18822;SDS011;9540;51.550;7.980;2023-06-24T07:28:08;10.65;;;6.32;;
18822;SDS011;9540;51.550;7.980;2023-06-24T07:30:37;12.52;;;5.70;;
18822;SDS011;9540;51.550;7.980;2023-06-24T07:33:04;8.02;;;5.50;;
18822;SDS011;9540;51.550;7.980;2023-06-24T07:35:31;6.63;;;5.28;;
18822;SDS011;9540;51.550;7.980;2023-06-24T07:37:58;5.60;;;5.00;;
18822;SDS011;9540;51.550;7.980;2023-06-24T07:40:26;8.73;;;5.47;;
18822;SDS011;9540;51.550;7.980;2023-06-24T07:42:53;6.63;;;5.65;;
18822;SDS011;9540;51.550;7.980;2023-06-24T07:45:20;6.22;;;5.63;;
18822;SDS011;9540;51.550;7.980;2023-06-24T07:47:49;7.95;;;5.55;;
18822;SDS011;9540;51.550;7.980;2023-06-24T07:50:16;7.10;;;5.35;;
18822;SDS011;9540;51.550;7.980;2023-06-24T07:52:43;8.07;;;6.10;;
18822;SDS011;9540;51.550;7.980;2023-06-24T07:55:10;8.20;;;5.35;;
18822;SDS011;9540;51.550;7.980;2023-06-24T07:57:38;5.97;;;4.75;;
18822;SDS011;9540;51.550;7.980;2023-06-24T08:00:06;6.45;;;5.10;;
18822;SDS011;9540;51.550;7.980;2023-06-24T08:02:35;5.75;;;5.15;;
18822;SDS011;9540;51.550;7.980;2023-06-24T08:05:04;8.35;;;5.25;;
18822;SDS011;9540;51.550;7.980;2023-06-24T08:07:31;11.43;;;5.10;;
18822;SDS011;9540;51.550;7.980;2023-06-24T08:09:58;6.88;;;5.10;;
18822;SDS011;9540;51.550;7.980;2023-06-24T08:12:25;7.32;;;4.40;;
18822;SDS011;9540;51.550;7.980;2023-06-24T08:14:53;7.10;;;4.60;;
18822;SDS011;9540;51.550;7.980;2023-06-24T08:17:20;8.77;;;4.45;;
18822;SDS011;9540;51.550;7.980;2023-06-24T08:19:47;6.25;;;4.93;;
18822;SDS011;9540;51.550;7.980;2023-06-24T08:22:16;6.15;;;4.95;;
18822;SDS011;9540;51.550;7.980;2023-06-24T08:24:43;8.82;;;4.90;;
18822;SDS011;9540;51.550;7.980;2023-06-24T08:27:10;5.70;;;4.85;;
18822;SDS011;9540;51.550;7.980;2023-06-24T08:29:37;6.50;;;4.97;;
18822;SDS011;9540;51.550;7.980;2023-06-24T08:32:05;5.07;;;4.50;;
18822;SDS011;9540;51.550;7.980;2023-06-24T08:34:32;8.63;;;5.32;;
18822;SDS011;9540;51.550;7.980;2023-06-24T08:36:59;8.95;;;4.10;;
18822;SDS011;9540;51.550;7.980;2023-06-24T08:39:28;5.90;;;4.55;;
18822;SDS011;9540;51.550;7.980;2023-06-24T08:41:55;5.80;;;3.83;;
18822;SDS011;9540;51.550;7.980;2023-06-24T08:44:23;8.50;;;4.63;;
18822;SDS011;9540;51.550;7.980;2023-06-24T08:46:50;4.40;;;4.00;;
18822;SDS011;9540;51.550;7.980;2023-06-24T08:49:20;5.60;;;4.10;;
18822;SDS011;9540;51.550;7.980;2023-06-24T08:51:54;6.90;;;3.65;;
18822;SDS011;9540;51.550;7.980;2023-06-24T08:54:25;9.10;;;4.15;;
18822;SDS011;9540;51.550;7.980;2023-06-24T08:56:54;7.32;;;4.65;;
18822;SDS011;9540;51.550;7.980;2023-06-24T08:59:21;5.63;;;4.63;;
18822;SDS011;9540;51.550;7.980;2023-06-24T09:01:49;8.80;;;4.97;;
18822;SDS011;9540;51.550;7.980;2023-06-24T09:04:16;7.88;;;5.20;;
18822;SDS011;9540;51.550;7.980;2023-06-24T09:06:44;7.07;;;5.20;;
18822;SDS011;9540;51.550;7.980;2023-06-24T09:09:17;9.38;;;5.00;;
18822;SDS011;9540;51.550;7.980;2023-06-24T09:11:50;6.95;;;5.28;;
18822;SDS011;9540;51.550;7.980;2023-06-24T09:14:20;6.03;;;4.75;;
18822;SDS011;9540;51.550;7.980;2023-06-24T09:16:51;6.22;;;5.40;;
18822;SDS011;9540;51.550;7.980;2023-06-24T09:19:22;6.75;;;5.25;;
18822;SDS011;9540;51.550;7.980;2023-06-24T09:21:50;7.07;;;5.18;;
18822;SDS011;9540;51.550;7.980;2023-06-24T09:24:18;7.45;;;5.80;;
18822;SDS011;9540;51.550;7.980;2023-06-24T09:26:45;6.97;;;5.72;;
18822;SDS011;9540;51.550;7.980;2023-06-24T09:29:12;6.38;;;5.10;;
18822;SDS011;9540;51.550;7.980;2023-06-24T09:31:48;8.23;;;5.88;;
18822;SDS011;9540;51.550;7.980;2023-06-24T09:34:18;8.63;;;6.75;;
18822;SDS011;9540;51.550;7.980;2023-06-24T09:36:47;7.85;;;6.30;;
18822;SDS011;9540;51.550;7.980;2023-06-24T09:39:18;6.72;;;5.97;;
18822;SDS011;9540;51.550;7.980;2023-06-24T09:41:48;8.07;;;6.30;;
18822;SDS011;9540;51.550;7.980;2023-06-24T09:44:16;10.77;;;6.50;;
18822;SDS011;9540;51.550;7.980;2023-06-24T09:46:45;9.93;;;5.35;;
18822;SDS011;9540;51.550;7.980;2023-06-24T09:49:19;6.72;;;5.57;;
18822;SDS011;9540;51.550;7.980;2023-06-24T09:51:47;7.28;;;5.97;;
18822;SDS011;9540;51.550;7.980;2023-06-24T09:54:15;13.50;;;6.15;;
18822;SDS011;9540;51.550;7.980;2023-06-24T09:56:43;8.38;;;5.72;;
18822;SDS011;9540;51.550;7.980;2023-06-24T09:59:14;9.85;;;6.63;;
18822;SDS011;9540;51.550;7.980;2023-06-24T10:01:44;6.65;;;5.85;;
18822;SDS011;9540;51.550;7.980;2023-06-24T10:04:13;9.63;;;6.22;;
18822;SDS011;9540;51.550;7.980;2023-06-24T10:06:44;7.40;;;5.63;;
18822;SDS011;9540;51.550;7.980;2023-06-24T10:09:12;6.40;;;5.80;;
18822;SDS011;9540;51.550;7.980;2023-06-24T10:11:42;10.23;;;6.32;;
18822;SDS011;9540;51.550;7.980;2023-06-24T10:14:11;13.63;;;7.13;;
18822;SDS011;9540;51.550;7.980;2023-06-24T10:16:41;7.45;;;6.18;;
18822;SDS011;9540;51.550;7.980;2023-06-24T10:19:09;8.48;;;7.25;;
18822;SDS011;9540;51.550;7.980;2023-06-24T10:21:47;7.75;;;6.90;;
18822;SDS011;9540;51.550;7.980;2023-06-24T10:24:29;12.13;;;6.45;;
18822;SDS011;9540;51.550;7.980;2023-06-24T10:27:04;8.52;;;5.47;;
18822;SDS011;9540;51.550;7.980;2023-06-24T10:29:34;8.88;;;6.22;;
18822;SDS011;9540;51.550;7.980;2023-06-24T10:32:02;7.93;;;5.57;;
18822;SDS011;9540;51.550;7.980;2023-06-24T10:34:31;6.38;;;5.65;;
18822;SDS011;9540;51.550;7.980;2023-06-24T10:37:02;9.07;;;6.00;;
18822;SDS011;9540;51.550;7.980;2023-06-24T10:39:40;5.72;;;5.13;;
18822;SDS011;9540;51.550;7.980;2023-06-24T10:42:37;8.00;;;5.05;;
18822;SDS011;9540;51.550;7.980;2023-06-24T10:45:16;12.63;;;6.68;;
18822;SDS011;9540;51.550;7.980;2023-06-24T10:47:46;10.00;;;7.28;;
18822;SDS011;9540;51.550;7.980;2023-06-24T10:50:15;9.43;;;6.03;;
18822;SDS011;9540;51.550;7.980;2023-06-24T10:52:46;9.20;;;6.75;;
18822;SDS011;9540;51.550;7.980;2023-06-24T10:55:14;8.02;;;5.88;;
18822;SDS011;9540;51.550;7.980;2023-06-24T10:57:42;6.93;;;6.10;;
18822;SDS011;9540;51.550;7.980;2023-06-24T11:00:10;6.55;;;5.22;;
18822;SDS011;9540;51.550;7.980;2023-06-24T11:02:39;5.07;;;4.57;;
18822;SDS011;9540;51.550;7.980;2023-06-24T11:05:07;7.43;;;5.25;;
18822;SDS011;9540;51.550;7.980;2023-06-24T11:07:36;9.13;;;5.63;;
18822;SDS011;9540;51.550;7.980;2023-06-24T11:10:06;9.65;;;5.38;;
18822;SDS011;9540;51.550;7.980;2023-06-24T11:12:37;9.57;;;5.05;;
18822;SDS011;9540;51.550;7.980;2023-06-24T11:15:06;8.15;;;6.05;;
18822;SDS011;9540;51.550;7.980;2023-06-24T11:17:34;8.07;;;5.65;;
18822;SDS011;9540;51.550;7.980;2023-06-24T11:20:06;7.07;;;5.18;;
18822;SDS011;9540;51.550;7.980;2023-06-24T11:22:34;7.97;;;5.85;;
18822;SDS011;9540;51.550;7.980;2023-06-24T11:25:01;9.50;;;5.43;;
18822;SDS011;9540;51.550;7.980;2023-06-24T11:27:30;7.07;;;5.65;;
18822;SDS011;9540;51.550;7.980;2023-06-24T11:29:59;6.35;;;5.18;;
18822;SDS011;9540;51.550;7.980;2023-06-24T11:32:34;6.20;;;4.85;;
18822;SDS011;9540;51.550;7.980;2023-06-24T11:35:03;6.13;;;5.53;;
18822;SDS011;9540;51.550;7.980;2023-06-24T11:37:32;8.32;;;5.60;;
18822;SDS011;9540;51.550;7.980;2023-06-24T11:40:00;8.18;;;5.40;;
18822;SDS011;9540;51.550;7.980;2023-06-24T11:42:31;8.07;;;5.43;;
18822;SDS011;9540;51.550;7.980;2023-06-24T11:44:59;8.07;;;4.95;;
18822;SDS011;9540;51.550;7.980;2023-06-24T11:47:30;10.93;;;5.57;;
18822;SDS011;9540;51.550;7.980;2023-06-24T11:49:59;9.25;;;5.82;;
18822;SDS011;9540;51.550;7.980;2023-06-24T11:52:31;6.70;;;5.47;;
18822;SDS011;9540;51.550;7.980;2023-06-24T11:54:59;6.68;;;5.60;;
18822;SDS011;9540;51.550;7.980;2023-06-24T12:00:19;9.13;;;5.45;;
18822;SDS011;9540;51.550;7.980;2023-06-24T12:02:55;6.03;;;4.53;;
18822;SDS011;9540;51.550;7.980;2023-06-24T12:05:24;4.95;;;4.43;;
18822;SDS011;9540;51.550;7.980;2023-06-24T12:07:55;9.13;;;5.40;;
18822;SDS011;9540;51.550;7.980;2023-06-24T12:10:23;8.82;;;5.45;;
18822;SDS011;9540;51.550;7.980;2023-06-24T12:12:52;7.03;;;4.40;;
18822;SDS011;9540;51.550;7.980;2023-06-24T12:15:19;5.15;;;4.55;;
18822;SDS011;9540;51.550;7.980;2023-06-24T12:17:46;7.05;;;4.80;;
18822;SDS011;9540;51.550;7.980;2023-06-24T12:20:14;7.13;;;4.68;;
18822;SDS011;9540;51.550;7.980;2023-06-24T12:22:42;4.78;;;4.35;;
18822;SDS011;9540;51.550;7.980;2023-06-24T12:25:10;5.82;;;4.43;;
18822;SDS011;9540;51.550;7.980;2023-06-24T12:27:37;9.30;;;4.40;;
18822;SDS011;9540;51.550;7.980;2023-06-24T12:30:07;7.20;;;5.22;;
18822;SDS011;9540;51.550;7.980;2023-06-24T12:32:35;6.10;;;4.43;;
18822;SDS011;9540;51.550;7.980;2023-06-24T12:35:03;5.22;;;4.70;;
18822;SDS011;9540;51.550;7.980;2023-06-24T12:37:31;5.47;;;4.40;;
18822;SDS011;9540;51.550;7.980;2023-06-24T12:39:58;6.25;;;4.78;;
18822;SDS011;9540;51.550;7.980;2023-06-24T12:42:26;5.65;;;4.70;;
18822;SDS011;9540;51.550;7.980;2023-06-24T12:44:53;7.63;;;4.75;;
18822;SDS011;9540;51.550;7.980;2023-06-24T12:47:22;5.00;;;4.10;;
18822;SDS011;9540;51.550;7.980;2023-06-24T12:49:49;4.43;;;4.03;;
18822;SDS011;9540;51.550;7.980;2023-06-24T12:52:18;5.93;;;4.18;;
18822;SDS011;9540;51.550;7.980;2023-06-24T12:54:45;4.60;;;3.90;;
18822;SDS011;9540;51.550;7.980;2023-06-24T12:57:13;6.60;;;4.55;;
18822;SDS011;9540;51.550;7.980;2023-06-24T12:59:41;7.03;;;4.68;;
18822;SDS011;9540;51.550;7.980;2023-06-24T13:02:08;6.40;;;4.00;;
18822;SDS011;9540;51.550;7.980;2023-06-24T13:04:41;7.43;;;3.92;;
18822;SDS011;9540;51.550;7.980;2023-06-24T13:07:08;7.22;;;4.53;;
18822;SDS011;9540;51.550;7.980;2023-06-24T13:09:35;4.10;;;3.60;;
18822;SDS011;9540;51.550;7.980;2023-06-24T13:12:03;5.97;;;3.88;;
18822;SDS011;9540;51.550;7.980;2023-06-24T13:14:31;6.60;;;4.03;;
18822;SDS011;9540;51.550;7.980;2023-06-24T13:16:58;5.43;;;4.32;;
18822;SDS011;9540;51.550;7.980;2023-06-24T13:19:25;5.80;;;4.15;;
18822;SDS011;9540;51.550;7.980;2023-06-24T13:21:54;6.70;;;4.22;;
18822;SDS011;9540;51.550;7.980;2023-06-24T13:24:21;5.13;;;4.22;;
18822;SDS011;9540;51.550;7.980;2023-06-24T13:26:49;5.60;;;4.07;;
18822;SDS011;9540;51.550;7.980;2023-06-24T13:29:16;6.18;;;4.53;;
18822;SDS011;9540;51.550;7.980;2023-06-24T13:31:45;4.68;;;4.20;;
18822;SDS011;9540;51.550;7.980;2023-06-24T13:34:12;4.53;;;3.75;;
18822;SDS011;9540;51.550;7.980;2023-06-24T13:36:39;5.35;;;4.00;;
18822;SDS011;9540;51.550;7.980;2023-06-24T13:39:08;7.68;;;4.07;;
18822;SDS011;9540;51.550;7.980;2023-06-24T13:41:37;8.43;;;3.92;;
18822;SDS011;9540;51.550;7.980;2023-06-24T13:44:05;5.32;;;4.18;;
18822;SDS011;9540;51.550;7.980;2023-06-24T13:46:32;4.40;;;4.00;;
18822;SDS011;9540;51.550;7.980;2023-06-24T13:48:59;5.07;;;4.07;;
18822;SDS011;9540;51.550;7.980;2023-06-24T13:51:26;7.20;;;3.90;;
18822;SDS011;9540;51.550;7.980;2023-06-24T13:53:54;5.45;;;4.38;;
18822;SDS011;9540;51.550;7.980;2023-06-24T13:56:23;3.85;;;3.45;;
18822;SDS011;9540;51.550;7.980;2023-06-24T13:58:51;5.82;;;4.05;;
18822;SDS011;9540;51.550;7.980;2023-06-24T14:01:19;4.88;;;3.65;;
18822;SDS011;9540;51.550;7.980;2023-06-24T14:03:47;4.78;;;3.60;;
18822;SDS011;9540;51.550;7.980;2023-06-24T14:06:15;5.05;;;4.07;;
18822;SDS011;9540;51.550;7.980;2023-06-24T14:08:43;3.65;;;3.35;;
18822;SDS011;9540;51.550;7.980;2023-06-24T14:11:11;4.30;;;3.90;;
18822;SDS011;9540;51.550;7.980;2023-06-24T14:13:39;5.22;;;3.78;;
18822;SDS011;9540;51.550;7.980;2023-06-24T14:16:07;6.13;;;3.60;;
18822;SDS011;9540;51.550;7.980;2023-06-24T14:18:38;5.90;;;4.10;;
18822;SDS011;9540;51.550;7.980;2023-06-24T14:21:06;3.80;;;3.35;;
18822;SDS011;9540;51.550;7.980;2023-06-24T14:23:34;5.28;;;3.38;;
18822;SDS011;9540;51.550;7.980;2023-06-24T14:26:01;5.15;;;4.00;;
18822;SDS011;9540;51.550;7.980;2023-06-24T14:28:29;6.13;;;3.78;;
18822;SDS011;9540;51.550;7.980;2023-06-24T14:30:57;5.30;;;3.92;;
18822;SDS011;9540;51.550;7.980;2023-06-24T14:33:24;6.97;;;3.47;;
18822;SDS011;9540;51.550;7.980;2023-06-24T14:35:51;4.35;;;3.88;;
18822;SDS011;9540;51.550;7.980;2023-06-24T14:38:19;3.88;;;3.45;;
18822;SDS011;9540;51.550;7.980;2023-06-24T14:40:46;3.53;;;3.22;;
18822;SDS011;9540;51.550;7.980;2023-06-24T14:43:13;6.63;;;3.65;;
18822;SDS011;9540;51.550;7.980;2023-06-24T14:45:40;3.97;;;3.47;;
18822;SDS011;9540;51.550;7.980;2023-06-24T14:48:08;4.05;;;2.85;;
18822;SDS011;9540;51.550;7.980;2023-06-24T14:50:35;3.53;;;3.10;;
18822;SDS011;9540;51.550;7.980;2023-06-24T14:53:03;3.97;;;3.63;;
18822;SDS011;9540;51.550;7.980;2023-06-24T14:55:30;3.65;;;3.35;;
18822;SDS011;9540;51.550;7.980;2023-06-24T14:57:57;3.67;;;3.20;;
18822;SDS011;9540;51.550;7.980;2023-06-24T15:00:24;3.20;;;2.90;;
18822;SDS011;9540;51.550;7.980;2023-06-24T15:02:52;3.75;;;3.38;;
18822;SDS011;9540;51.550;7.980;2023-06-24T15:05:21;4.75;;;3.35;;
18822;SDS011;9540;51.550;7.980;2023-06-24T15:07:48;4.68;;;3.08;;